createdAt,value
2022-12-24T00:01:09.898Z,1.97
2022-12-24T00:06:22.436Z,2.10
2022-12-24T00:11:24.964Z,2.16
2022-12-24T00:16:27.827Z,2.02
2022-12-24T00:21:30.435Z,1.86
2022-12-24T00:26:34.047Z,1.94
2022-12-24T00:31:36.581Z,2.02
2022-12-24T00:36:39.133Z,1.71
2022-12-24T00:41:41.849Z,1.83
2022-12-24T00:46:44.523Z,1.97
2022-12-24T00:51:47.247Z,1.92
2022-12-24T00:56:50.001Z,1.81
2022-12-24T01:01:52.768Z,1.94
2022-12-24T01:06:56.288Z,1.87
2022-12-24T01:11:58.819Z,2.07
2022-12-24T01:17:01.432Z,2.06
2022-12-24T01:22:04.081Z,2.05
2022-12-24T01:27:06.730Z,2.09
2022-12-24T01:32:09.314Z,2.14
2022-12-24T01:37:11.869Z,2.14
2022-12-24T01:42:41.478Z,2.23
2022-12-24T01:47:44.355Z,2.14
2022-12-24T01:52:46.938Z,1.91
2022-12-24T01:57:56.729Z,1.67
2022-12-24T02:02:59.973Z,1.86
2022-12-24T02:08:04.789Z,2.13
2022-12-24T02:13:08.185Z,2.06
2022-12-24T02:19:03.201Z,2.00
2022-12-24T02:24:23.320Z,1.93
2022-12-24T02:29:47.291Z,1.98
2022-12-24T02:34:58.352Z,2.00
2022-12-24T02:40:15.952Z,2.08
2022-12-24T02:45:23.900Z,1.91
2022-12-24T02:50:27.393Z,1.96
2022-12-24T02:55:29.918Z,2.11
2022-12-24T03:01:17.391Z,2.13
2022-12-24T03:06:44.518Z,2.11
2022-12-24T03:11:58.427Z,1.81
2022-12-24T03:17:03.677Z,1.93
2022-12-24T03:22:10.046Z,1.91
2022-12-24T03:27:14.422Z,1.86
2022-12-24T03:32:25.079Z,1.97
2022-12-24T03:37:27.823Z,1.95
2022-12-24T03:42:30.367Z,1.99
2022-12-24T03:47:33.096Z,2.13
2022-12-24T03:52:35.667Z,2.12
2022-12-24T03:57:38.298Z,2.11
2022-12-24T04:02:41.211Z,1.97
2022-12-24T04:07:44.828Z,2.07
2022-12-24T04:12:47.409Z,2.03
2022-12-24T04:17:49.946Z,2.01
2022-12-24T04:22:53.482Z,1.95
2022-12-24T04:27:56.019Z,1.94
2022-12-24T04:32:58.661Z,2.00
2022-12-24T04:38:01.211Z,2.02
2022-12-24T04:43:03.878Z,1.94
2022-12-24T04:48:06.465Z,1.92
2022-12-24T04:53:09.061Z,2.08
2022-12-24T04:58:12.106Z,2.15
2022-12-24T05:03:14.772Z,2.04
2022-12-24T05:08:17.329Z,2.17
2022-12-24T05:13:19.893Z,1.96
2022-12-24T05:18:23.216Z,2.11
2022-12-24T05:23:44.992Z,2.01
2022-12-24T05:28:48.337Z,1.93
2022-12-24T05:33:51.591Z,2.02
2022-12-24T05:38:54.811Z,2.06
2022-12-24T05:43:57.720Z,1.90
2022-12-24T05:49:00.289Z,2.02
2022-12-24T05:54:02.973Z,1.83
2022-12-24T05:59:05.558Z,1.72
2022-12-24T06:04:08.163Z,1.77
2022-12-24T06:09:11.087Z,1.87
2022-12-24T06:14:13.678Z,1.81
2022-12-24T06:19:16.199Z,1.90
2022-12-24T06:24:19.101Z,1.90
2022-12-24T06:29:21.652Z,1.81
2022-12-24T06:34:24.370Z,1.77
2022-12-24T06:39:27.014Z,1.89
2022-12-24T06:44:32.475Z,1.90
2022-12-24T06:49:35.214Z,1.95
2022-12-24T06:54:37.911Z,1.95
2022-12-24T06:59:40.527Z,2.07
2022-12-24T07:04:45.472Z,2.16
2022-12-24T07:09:48.164Z,2.18
2022-12-24T07:14:50.801Z,2.15
2022-12-24T07:19:53.515Z,2.14
2022-12-24T07:24:56.237Z,2.12
2022-12-24T07:29:58.925Z,2.09
2022-12-24T07:35:04.960Z,1.91
2022-12-24T07:40:09.861Z,2.18
2022-12-24T07:45:12.837Z,2.07
2022-12-24T07:50:15.592Z,2.15
2022-12-24T07:55:18.341Z,2.21
2022-12-24T08:00:21.174Z,2.24
2022-12-24T08:05:23.792Z,2.23
2022-12-24T08:10:26.462Z,2.33
2022-12-24T08:15:29.043Z,2.30
2022-12-24T08:20:31.670Z,2.35
2022-12-24T08:25:35.052Z,2.27
2022-12-24T08:30:37.705Z,2.07
2022-12-24T08:35:40.430Z,2.32
2022-12-24T08:40:44.173Z,2.28
2022-12-24T08:45:49.299Z,2.33
2022-12-24T08:50:51.879Z,2.45
2022-12-24T08:56:02.452Z,2.51
2022-12-24T09:01:14.393Z,2.42
2022-12-24T09:06:17.249Z,2.38
2022-12-24T09:11:20.690Z,2.18
2022-12-24T09:16:23.555Z,2.31
2022-12-24T09:21:26.689Z,2.24
2022-12-24T09:26:31.681Z,2.30
2022-12-24T09:31:34.388Z,2.33
2022-12-24T09:36:37.057Z,2.19
2022-12-24T09:42:04.027Z,2.22
2022-12-24T09:47:21.887Z,2.30
2022-12-24T09:52:35.150Z,2.21
2022-12-24T09:57:42.050Z,2.35
2022-12-24T10:02:44.854Z,2.19
2022-12-24T10:08:07.315Z,2.10
2022-12-24T10:13:35.815Z,2.23
2022-12-24T10:19:05.656Z,2.17
2022-12-24T10:24:14.011Z,2.13
2022-12-24T10:29:36.724Z,2.03
2022-12-24T10:34:44.713Z,2.07
2022-12-24T10:39:47.384Z,2.09
2022-12-24T10:44:57.479Z,2.24
2022-12-24T10:50:14.019Z,2.30
2022-12-24T10:55:19.469Z,2.25
2022-12-24T11:00:30.004Z,2.24
2022-12-24T11:05:36.724Z,2.17
2022-12-24T11:10:43.861Z,2.22
2022-12-24T11:15:47.148Z,2.18
2022-12-24T11:20:52.620Z,2.17
2022-12-24T11:25:57.250Z,2.16
2022-12-24T11:31:18.096Z,2.12
2022-12-24T11:36:23.842Z,2.19
2022-12-24T11:41:27.096Z,2.06
2022-12-24T11:46:38.908Z,1.76
2022-12-24T11:52:05.006Z,1.96
2022-12-24T11:57:11.771Z,1.64
2022-12-24T12:02:17.374Z,1.97
2022-12-24T12:07:28.989Z,2.05
2022-12-24T12:12:41.109Z,2.00
2022-12-24T12:17:56.979Z,2.06
2022-12-24T12:23:33.157Z,2.04
2022-12-24T12:28:56.460Z,1.88
2022-12-24T12:34:20.488Z,1.96
2022-12-24T12:39:24.039Z,1.78
2022-12-24T12:44:46.074Z,1.49
2022-12-24T12:50:10.008Z,1.55
2022-12-24T12:55:31.078Z,1.70
2022-12-24T13:00:38.718Z,1.53
2022-12-24T13:06:09.655Z,1.53
2022-12-24T13:11:22.818Z,1.40
2022-12-24T13:17:06.670Z,1.10
2022-12-24T13:22:16.575Z,1.31
2022-12-24T13:27:25.100Z,1.36
2022-12-24T13:32:28.640Z,1.34
2022-12-24T13:37:31.203Z,1.73
2022-12-24T13:42:59.697Z,1.95
2022-12-24T13:48:07.958Z,1.60
2022-12-24T13:53:41.992Z,1.21
2022-12-24T13:58:48.760Z,1.27
2022-12-24T14:03:58.258Z,1.54
2022-12-24T14:09:09.434Z,1.74
2022-12-24T14:14:26.982Z,1.99
2022-12-24T14:19:40.532Z,1.89
2022-12-24T14:24:46.449Z,1.84
2022-12-24T14:29:55.289Z,1.88
2022-12-24T14:35:21.365Z,2.01
2022-12-24T14:40:29.565Z,2.08
2022-12-24T14:45:43.559Z,2.25
2022-12-24T14:51:03.234Z,2.36
2022-12-24T14:56:17.589Z,2.21
2022-12-24T15:01:26.915Z,2.09
2022-12-24T15:06:33.851Z,1.80
2022-12-24T15:11:36.748Z,1.96
2022-12-24T15:16:40.284Z,1.92
2022-12-24T15:21:44.299Z,1.95
2022-12-24T15:26:46.912Z,1.98
2022-12-24T15:31:57.203Z,1.89
2022-12-24T15:37:38.266Z,2.00
2022-12-24T15:42:44.196Z,1.97
2022-12-24T15:47:59.855Z,2.12
2022-12-24T15:53:20.721Z,2.07
2022-12-24T15:58:28.010Z,2.17
2022-12-24T16:03:31.086Z,2.16
2022-12-24T16:08:35.590Z,2.19
2022-12-24T16:13:44.064Z,2.07
2022-12-24T16:18:55.375Z,2.13
2022-12-24T16:24:21.482Z,2.02
2022-12-24T16:29:24.559Z,2.03
2022-12-24T16:34:31.956Z,2.08
2022-12-24T16:39:35.311Z,2.04
2022-12-24T16:44:38.860Z,2.00
2022-12-24T16:49:41.646Z,1.91
2022-12-24T16:54:44.429Z,1.76
2022-12-24T16:59:47.327Z,1.82
2022-12-24T17:04:50.931Z,1.88
2022-12-24T17:09:53.543Z,1.84
2022-12-24T17:14:56.525Z,1.83
2022-12-24T17:19:59.196Z,1.65
2022-12-24T17:25:01.950Z,1.59
2022-12-24T17:30:06.379Z,1.59
2022-12-24T17:35:09.535Z,1.69
2022-12-24T17:40:12.573Z,1.68
2022-12-24T17:45:15.284Z,1.72
2022-12-24T17:50:17.931Z,1.67
2022-12-24T17:55:22.869Z,1.52
2022-12-24T18:00:29.513Z,1.83
2022-12-24T18:05:35.682Z,1.71
2022-12-24T18:10:38.323Z,1.79
2022-12-24T18:15:41.435Z,1.80
2022-12-24T18:20:46.946Z,1.49
2022-12-24T18:25:49.783Z,1.34
2022-12-24T18:31:04.012Z,1.18
2022-12-24T18:36:07.234Z,1.15
2022-12-24T18:41:13.889Z,0.90
2022-12-24T18:46:23.632Z,0.85
2022-12-24T18:51:30.987Z,0.72
2022-12-24T18:56:33.922Z,0.67
2022-12-24T19:01:37.182Z,0.77
2022-12-24T19:06:40.254Z,0.91
2022-12-24T19:11:43.034Z,0.93
2022-12-24T19:16:46.077Z,1.03
2022-12-24T19:21:49.162Z,0.87
2022-12-24T19:26:52.572Z,1.09
2022-12-24T19:31:55.362Z,0.86
2022-12-24T19:36:57.974Z,1.00
2022-12-24T19:42:01.187Z,0.73
2022-12-24T19:47:03.939Z,0.55
2022-12-24T19:52:06.516Z,0.85
2022-12-24T19:57:09.131Z,0.58
2022-12-24T20:02:11.918Z,0.47
2022-12-24T20:07:15.015Z,0.36
2022-12-24T20:12:17.703Z,0.28
2022-12-24T20:17:20.453Z,0.27
2022-12-24T20:22:25.907Z,0.28
2022-12-24T20:27:28.818Z,0.27
2022-12-24T20:32:31.353Z,0.19
2022-12-24T20:37:43.716Z,0.33
2022-12-24T20:42:48.760Z,0.28
2022-12-24T20:47:52.061Z,0.17
2022-12-24T20:52:55.047Z,-0.12
2022-12-24T20:57:57.654Z,-0.01
2022-12-24T21:03:00.506Z,0.02
2022-12-24T21:08:03.636Z,-0.20
2022-12-24T21:13:06.686Z,0.03
2022-12-24T21:18:12.298Z,0.16
2022-12-24T21:23:15.067Z,-0.02
2022-12-24T21:28:17.757Z,0.25
2022-12-24T21:33:20.626Z,0.14
2022-12-24T21:38:23.173Z,0.23
2022-12-24T21:43:25.797Z,0.34
2022-12-24T21:48:46.829Z,0.40
2022-12-24T21:54:07.912Z,0.36
2022-12-24T21:59:10.503Z,0.47
2022-12-24T22:04:13.035Z,0.54
2022-12-24T22:09:34.085Z,0.61
2022-12-24T22:14:36.758Z,0.51
2022-12-24T22:19:39.393Z,0.60
2022-12-24T22:24:42.147Z,0.28
2022-12-24T22:29:44.961Z,-0.21
2022-12-24T22:34:49.507Z,-0.35
2022-12-24T22:39:52.092Z,-0.54
2022-12-24T22:44:54.623Z,-0.36
2022-12-24T22:49:57.182Z,-0.32
2022-12-24T22:55:00.275Z,-0.46
2022-12-24T23:00:06.107Z,-0.58
2022-12-24T23:05:14.348Z,-0.70
2022-12-24T23:10:17.126Z,-0.84
2022-12-24T23:15:19.702Z,-0.79
2022-12-24T23:20:22.219Z,-0.81
2022-12-24T23:25:25.002Z,-0.77
2022-12-24T23:30:27.622Z,-0.72
2022-12-24T23:35:30.830Z,-0.75
2022-12-24T23:40:33.438Z,-0.79
2022-12-24T23:45:36.488Z,-0.69
2022-12-24T23:50:39.082Z,-0.72
2022-12-24T23:55:42.317Z,-0.95
